This is the latest recevied weather packets stored in our database for station/object IZ1UKX-13. If no packets are shown the sender has not sent any weather packets the latest 10 day(s).
| Time | Temp. | Humidity | Pressure | Rain* | Wind** | Luminosity | Snow |
|---|---|---|---|---|---|---|---|
| 1777705077 | 16.67° C | 50% | 1023.6 hPa | 0 mm | - | 0 W/m² | - |
| 1777704777 | 16.67° C | 52% | 1024 hPa | 0 mm | - | 0 W/m² | - |
| 1777704477 | 15.56° C | 54% | 1024 hPa | 0 mm | - | 0 W/m² | - |
| 1777704452 | 15.56° C | 54% | 1024 hPa | 0 mm | - | 0 W/m² | - |
| 1777704427 | 15.56° C | 54% | 1024 hPa | 0 mm | - | 0 W/m² | - |
| 1777704402 | 15.56° C | 54% | 1024 hPa | 0 mm | - | 0 W/m² | - |
| 1777704102 | 16.11° C | 52% | 1024 hPa | 0 mm | - | 0 W/m² | - |
| 1777703802 | 15.56° C | 54% | 1024 hPa | 0 mm | - | 0 W/m² | - |
| 1777703501 | 14.44° C | 57% | 1024 hPa | 0 mm | - | 0 W/m² | - |
| 1777703201 | 14.44° C | 57% | 1024 hPa | 0 mm | - | 0 W/m² | - |
| 1777702901 | 13.89° C | 57% | 1024.5 hPa | 0 mm | - | 0 W/m² | - |
| 1777702602 | 13.89° C | 58% | 1024.5 hPa | 0 mm | - | 0 W/m² | - |
| 1777702301 | 13.33° C | 60% | 1024.5 hPa | 0 mm | - | 0 W/m² | - |
| 1777702001 | 11.67° C | 65% | 1024.9 hPa | 0 mm | - | 0 W/m² | - |
| 1777701701 | 11.67° C | 63% | 1024.9 hPa | 0 mm | - | 0 W/m² | - |
| 1777701402 | 11.67° C | 65% | 1024.9 hPa | 0 mm | - | 0 W/m² | - |
| 1777701377 | 11.67° C | 65% | 1023.8 hPa | 0 mm | - | 0 W/m² | - |
| 1777701351 | 11.67° C | 64% | 1024.9 hPa | 0 mm | - | 0 W/m² | - |
| 1777701051 | 11.67° C | 68% | 1024.9 hPa | 0 mm | - | 0 W/m² | - |
| 1777700751 | 9.44° C | 75% | 1025.4 hPa | 0 mm | - | 0 W/m² | - |
| 1777700701 | 9.44° C | 76% | 1025.4 hPa | 0 mm | - | 0 W/m² | - |
| 1777700100 | 6.67° C | 82% | 1025.8 hPa | 0 mm | - | 0 W/m² | - |
| 1777699800 | 6.11° C | 83% | 1026.2 hPa | 0 mm | - | 0 W/m² | - |
| 1777699501 | 5.56° C | 83% | 1026.2 hPa | 0 mm | - | 0 W/m² | - |
| 1777699201 | 5.56° C | 83% | 1026.2 hPa | 0 mm | - | 0 W/m² | - |
* Rain latest hour (hover to see other rain measurements)
** Current wind speed in m/s (hover to see current wind gust speed)